AFR302 LFPG-KSAN
Flight info
| Callsign | AFR302 |
|---|---|
| Flight time | N/A |
| Altitude | 30000 |
| Route | ATREX DCT VESAN DCT RATUK DCT SOVAT/N0491F360 DCT LESTA UP6 RODOL UM65 TENSO L603 BELOX DCT GOMUP/M085F370 NATB CUDDY/N0498F380 DCT 54N070W DCT VETRO/N0485F400 DCT KP12M DCT KP87G DCT KD72A DCT KD54U DCT HBU J128 TBC DCT PLNDL Q86 TTRUE TOPGN2 |
| Aircraft | A359/H-SDE2E3GHIJ3J4J5LM1ORWXY/LB1D1 |
Departure
| Time | N/A |
|---|---|
| Airport | Charles de Gaulle International Airport (LFPG) |
Arrival
| Time | 2026-04-21 22:18 |
|---|---|
| Airport | San Diego International Airport (KSAN) |
| Time | Latitude | Longitude | Altitude | Speed | Heading |
|---|---|---|---|---|---|
| 2026-04-21 21:35 | 35.19854 | -113.24579 | 39927 ft | 430 kts | 240° |
| 2026-04-21 21:36 | 35.18330 | -113.27770 | 39927 ft | 430 kts | 240° |
| 2026-04-21 21:36 | 35.15312 | -113.34078 | 39927 ft | 430 kts | 240° |
| 2026-04-21 21:37 | 35.12292 | -113.40384 | 39902 ft | 430 kts | 240° |
| 2026-04-21 21:37 | 35.09261 | -113.46701 | 39906 ft | 432 kts | 240° |
| 2026-04-21 21:38 | 35.06217 | -113.53041 | 39891 ft | 433 kts | 240° |
| 2026-04-21 21:38 | 35.03168 | -113.59377 | 39903 ft | 433 kts | 240° |
| 2026-04-21 21:39 | 35.00114 | -113.65710 | 39896 ft | 433 kts | 240° |
| 2026-04-21 21:39 | 34.97078 | -113.71995 | 39902 ft | 433 kts | 240° |
| 2026-04-21 21:40 | 34.94019 | -113.78317 | 39892 ft | 432 kts | 239° |
| 2026-04-21 21:40 | 34.90961 | -113.84623 | 39890 ft | 432 kts | 239° |
| 2026-04-21 21:41 | 34.87900 | -113.90924 | 39891 ft | 432 kts | 239° |
| 2026-04-21 21:41 | 34.84792 | -113.97191 | 39888 ft | 432 kts | 238° |
| 2026-04-21 21:42 | 34.81577 | -114.03374 | 39881 ft | 432 kts | 238° |
| 2026-04-21 21:42 | 34.78371 | -114.09558 | 39894 ft | 431 kts | 238° |
| 2026-04-21 21:43 | 34.75186 | -114.15713 | 39892 ft | 429 kts | 238° |
| 2026-04-21 21:43 | 34.72008 | -114.21848 | 39898 ft | 429 kts | 238° |
| 2026-04-21 21:44 | 34.68822 | -114.27989 | 39918 ft | 429 kts | 238° |
| 2026-04-21 21:44 | 34.65635 | -114.34125 | 39926 ft | 429 kts | 238° |
| 2026-04-21 21:45 | 34.62213 | -114.40068 | 39903 ft | 430 kts | 231° |
| 2026-04-21 21:45 | 34.58295 | -114.45528 | 39891 ft | 428 kts | 230° |
| 2026-04-21 21:46 | 34.54364 | -114.50949 | 39898 ft | 429 kts | 230° |
| 2026-04-21 21:46 | 34.50431 | -114.56370 | 39890 ft | 428 kts | 230° |
| 2026-04-21 21:47 | 34.46502 | -114.61782 | 39883 ft | 427 kts | 230° |
| 2026-04-21 21:47 | 34.42576 | -114.67186 | 39881 ft | 427 kts | 230° |
| 2026-04-21 21:48 | 34.38645 | -114.72588 | 39880 ft | 427 kts | 230° |
| 2026-04-21 21:48 | 34.34707 | -114.77993 | 39881 ft | 429 kts | 230° |
| 2026-04-21 21:49 | 34.30781 | -114.83367 | 39885 ft | 429 kts | 230° |
| 2026-04-21 21:49 | 34.26824 | -114.88768 | 39882 ft | 429 kts | 230° |
| 2026-04-21 21:50 | 34.22859 | -114.94173 | 39880 ft | 430 kts | 230° |
| 2026-04-21 21:50 | 34.18893 | -114.99571 | 39885 ft | 430 kts | 230° |
| 2026-04-21 21:51 | 34.14928 | -115.04962 | 39886 ft | 428 kts | 230° |
| 2026-04-21 21:51 | 34.10973 | -115.10330 | 39888 ft | 428 kts | 230° |
| 2026-04-21 21:52 | 34.07015 | -115.15694 | 39887 ft | 428 kts | 230° |
| 2026-04-21 21:52 | 34.03060 | -115.21047 | 39879 ft | 428 kts | 231° |
| 2026-04-21 21:53 | 33.99097 | -115.26404 | 39887 ft | 428 kts | 230° |
| 2026-04-21 21:53 | 33.95139 | -115.31776 | 39892 ft | 429 kts | 230° |
| 2026-04-21 21:54 | 33.91185 | -115.37127 | 39897 ft | 426 kts | 230° |
| 2026-04-21 21:54 | 33.87256 | -115.42438 | 39906 ft | 425 kts | 230° |
| 2026-04-21 21:54 | 33.85297 | -115.45084 | 39738 ft | 420 kts | 230° |
| 2026-04-21 21:55 | 33.83353 | -115.47707 | 39027 ft | 421 kts | 230° |
| 2026-04-21 21:55 | 33.81394 | -115.50350 | 38157 ft | 425 kts | 230° |
| 2026-04-21 21:55 | 33.79420 | -115.53011 | 37314 ft | 426 kts | 230° |
| 2026-04-21 21:55 | 33.77447 | -115.55668 | 36533 ft | 426 kts | 231° |
| 2026-04-21 21:56 | 33.75472 | -115.58325 | 35759 ft | 426 kts | 231° |
| 2026-04-21 21:56 | 33.73499 | -115.60979 | 34994 ft | 425 kts | 231° |
| 2026-04-21 21:56 | 33.71530 | -115.63626 | 34227 ft | 425 kts | 231° |
| 2026-04-21 21:56 | 33.69560 | -115.66270 | 33363 ft | 425 kts | 230° |
| 2026-04-21 21:57 | 33.67565 | -115.68910 | 32285 ft | 429 kts | 230° |
| 2026-04-21 21:57 | 33.65544 | -115.71575 | 31209 ft | 434 kts | 230° |
| 2026-04-21 21:57 | 33.63501 | -115.74270 | 30314 ft | 436 kts | 229° |
| 2026-04-21 21:57 | 33.61576 | -115.77062 | 29593 ft | 432 kts | 234° |
| 2026-04-21 21:58 | 33.59848 | -115.79976 | 28933 ft | 426 kts | 236° |
| 2026-04-21 21:58 | 33.58173 | -115.82880 | 28329 ft | 421 kts | 236° |
| 2026-04-21 21:58 | 33.56521 | -115.85750 | 27728 ft | 416 kts | 236° |
| 2026-04-21 21:58 | 33.54885 | -115.88587 | 27122 ft | 411 kts | 236° |
| 2026-04-21 21:59 | 33.53268 | -115.91388 | 26544 ft | 407 kts | 236° |
| 2026-04-21 21:59 | 33.51665 | -115.94160 | 25964 ft | 403 kts | 235° |
| 2026-04-21 21:59 | 33.50078 | -115.96900 | 25437 ft | 398 kts | 235° |
| 2026-04-21 21:59 | 33.48510 | -115.99609 | 24916 ft | 393 kts | 235° |
| 2026-04-21 22:00 | 33.46956 | -116.02289 | 24421 ft | 391 kts | 235° |
| 2026-04-21 22:00 | 33.45409 | -116.04956 | 23904 ft | 389 kts | 235° |
| 2026-04-21 22:00 | 33.43868 | -116.07611 | 23387 ft | 387 kts | 235° |
| 2026-04-21 22:00 | 33.42335 | -116.10250 | 22817 ft | 385 kts | 235° |
| 2026-04-21 22:01 | 33.40808 | -116.12876 | 22309 ft | 383 kts | 235° |
| 2026-04-21 22:01 | 33.39291 | -116.15483 | 21833 ft | 381 kts | 235° |
| 2026-04-21 22:01 | 33.37783 | -116.18080 | 21335 ft | 379 kts | 235° |
| 2026-04-21 22:01 | 33.36281 | -116.20658 | 20832 ft | 377 kts | 236° |
| 2026-04-21 22:02 | 33.34739 | -116.23189 | 20339 ft | 376 kts | 231° |
| 2026-04-21 22:02 | 33.32850 | -116.25332 | 19855 ft | 375 kts | 218° |
| 2026-04-21 22:02 | 33.30592 | -116.26905 | 19380 ft | 377 kts | 210° |
| 2026-04-21 22:02 | 33.28236 | -116.28290 | 18893 ft | 377 kts | 209° |
| 2026-04-21 22:03 | 33.25878 | -116.29651 | 18397 ft | 376 kts | 209° |
| 2026-04-21 22:03 | 33.23565 | -116.30991 | 18103 ft | 373 kts | 209° |
| 2026-04-21 22:03 | 33.21250 | -116.32343 | 17441 ft | 370 kts | 209° |
| 2026-04-21 22:03 | 33.18919 | -116.33706 | 16523 ft | 374 kts | 209° |
| 2026-04-21 22:04 | 33.16602 | -116.35058 | 16072 ft | 365 kts | 209° |
| 2026-04-21 22:04 | 33.14351 | -116.36374 | 15670 ft | 356 kts | 209° |
| 2026-04-21 22:04 | 33.12131 | -116.37667 | 15100 ft | 355 kts | 210° |
| 2026-04-21 22:04 | 33.09929 | -116.38959 | 14626 ft | 350 kts | 209° |
| 2026-04-21 22:05 | 33.07792 | -116.40210 | 14493 ft | 334 kts | 209° |
| 2026-04-21 22:05 | 33.05746 | -116.41396 | 14369 ft | 319 kts | 209° |
| 2026-04-21 22:05 | 33.03794 | -116.42527 | 14240 ft | 305 kts | 209° |
| 2026-04-21 22:05 | 33.01931 | -116.43603 | 14130 ft | 292 kts | 209° |
| 2026-04-21 22:06 | 33.00198 | -116.44810 | 13770 ft | 287 kts | 218° |
| 2026-04-21 22:06 | 32.98644 | -116.46294 | 13319 ft | 285 kts | 222° |
| 2026-04-21 22:06 | 32.97143 | -116.47822 | 12944 ft | 283 kts | 221° |
| 2026-04-21 22:06 | 32.95650 | -116.49343 | 12551 ft | 281 kts | 221° |
| 2026-04-21 22:07 | 32.94167 | -116.50836 | 12212 ft | 278 kts | 221° |
| 2026-04-21 22:07 | 32.92696 | -116.52325 | 11828 ft | 277 kts | 221° |
| 2026-04-21 22:07 | 32.91240 | -116.53805 | 11455 ft | 274 kts | 221° |
| 2026-04-21 22:07 | 32.89793 | -116.55268 | 11086 ft | 272 kts | 221° |
| 2026-04-21 22:08 | 32.88351 | -116.56723 | 10738 ft | 271 kts | 221° |
| 2026-04-21 22:08 | 32.86918 | -116.58171 | 10370 ft | 270 kts | 222° |
| 2026-04-21 22:08 | 32.85496 | -116.59608 | 10077 ft | 265 kts | 221° |
| 2026-04-21 22:08 | 32.84121 | -116.60993 | 9927 ft | 253 kts | 221° |
| 2026-04-21 22:09 | 32.82797 | -116.62333 | 9782 ft | 251 kts | 221° |
| 2026-04-21 22:09 | 32.81454 | -116.63681 | 9488 ft | 253 kts | 221° |
| 2026-04-21 22:09 | 32.80104 | -116.65035 | 9155 ft | 255 kts | 222° |
| 2026-04-21 22:09 | 32.78747 | -116.66399 | 8810 ft | 256 kts | 222° |
| 2026-04-21 22:10 | 32.77471 | -116.67863 | 8495 ft | 256 kts | 232° |
| 2026-04-21 22:10 | 32.76491 | -116.69624 | 8158 ft | 256 kts | 240° |
| 2026-04-21 22:10 | 32.75617 | -116.71466 | 7825 ft | 257 kts | 241° |
| 2026-04-21 22:10 | 32.74750 | -116.73327 | 7493 ft | 258 kts | 241° |
| 2026-04-21 22:11 | 32.73877 | -116.75184 | 7145 ft | 257 kts | 241° |
| 2026-04-21 22:11 | 32.73001 | -116.77043 | 6838 ft | 257 kts | 242° |
| 2026-04-21 22:11 | 32.72128 | -116.78884 | 6479 ft | 256 kts | 242° |
| 2026-04-21 22:11 | 32.71250 | -116.80735 | 6124 ft | 259 kts | 242° |
| 2026-04-21 22:12 | 32.70485 | -116.82653 | 5854 ft | 253 kts | 250° |
| 2026-04-21 22:12 | 32.69874 | -116.84560 | 5699 ft | 241 kts | 251° |
| 2026-04-21 22:12 | 32.69307 | -116.86384 | 5569 ft | 230 kts | 252° |
| 2026-04-21 22:12 | 32.68765 | -116.88135 | 5346 ft | 223 kts | 251° |
| 2026-04-21 22:13 | 32.68244 | -116.89861 | 5013 ft | 222 kts | 252° |
| 2026-04-21 22:13 | 32.67743 | -116.91584 | 4737 ft | 220 kts | 252° |
| 2026-04-21 22:13 | 32.67357 | -116.93299 | 4403 ft | 217 kts | 264° |
| 2026-04-21 22:13 | 32.67533 | -116.95062 | 4108 ft | 216 kts | 287° |
| 2026-04-21 22:14 | 32.68003 | -116.96732 | 3983 ft | 210 kts | 288° |
| 2026-04-21 22:14 | 32.68424 | -116.98390 | 3911 ft | 210 kts | 285° |
| 2026-04-21 22:14 | 32.68808 | -117.00051 | 3637 ft | 208 kts | 284° |
| 2026-04-21 22:14 | 32.69206 | -117.01708 | 3287 ft | 209 kts | 285° |
| 2026-04-21 22:15 | 32.69606 | -117.03370 | 2940 ft | 210 kts | 285° |
| 2026-04-21 22:15 | 32.70004 | -117.05031 | 2616 ft | 209 kts | 284° |
| 2026-04-21 22:15 | 32.70403 | -117.06694 | 2301 ft | 207 kts | 283° |
| 2026-04-21 22:15 | 32.70786 | -117.08294 | 1972 ft | 194 kts | 283° |
| 2026-04-21 22:16 | 32.71140 | -117.09755 | 1711 ft | 176 kts | 283° |
| 2026-04-21 22:16 | 32.71460 | -117.11094 | 1431 ft | 161 kts | 284° |
| 2026-04-21 22:16 | 32.71752 | -117.12302 | 1183 ft | 145 kts | 284° |
| 2026-04-21 22:16 | 32.72022 | -117.13405 | 974 ft | 135 kts | 284° |
| 2026-04-21 22:17 | 32.72193 | -117.14121 | 821 ft | 131 kts | 282° |
| 2026-04-21 22:17 | 32.72435 | -117.15154 | 659 ft | 131 kts | 282° |
| 2026-04-21 22:17 | 32.72689 | -117.16188 | 422 ft | 133 kts | 284° |
| 2026-04-21 22:17 | 32.72947 | -117.17234 | 222 ft | 131 kts | 279° |
| 2026-04-21 22:18 | 32.73191 | -117.18263 | 38 ft | 127 kts | 281° |
| 2026-04-21 22:18 | 32.73396 | -117.19126 | 32 ft | 75 kts | 286° |
| 2026-04-21 22:18 | 32.73487 | -117.19502 | 29 ft | 39 kts | 286° |
| 2026-04-21 22:18 | 32.73532 | -117.19740 | 33 ft | 24 kts | 266° |
| 2026-04-21 22:19 | 32.73482 | -117.19832 | 31 ft | 5 kts | 165° |
| 2026-04-21 22:19 | 32.73453 | -117.19785 | 30 ft | 9 kts | 110° |
| 2026-04-21 22:19 | 32.73450 | -117.19771 | 30 ft | 0 kts | 106° |
| 2026-04-21 22:20 | 32.73449 | -117.19771 | 30 ft | 0 kts | 106° |
| 2026-04-21 22:20 | 32.73439 | -117.19745 | 29 ft | 9 kts | 121° |
| 2026-04-21 22:20 | 32.73386 | -117.19712 | 28 ft | 3 kts | 115° |
| 2026-04-21 22:20 | 32.73393 | -117.19701 | 28 ft | 2 kts | 46° |
| 2026-04-21 22:21 | 32.73419 | -117.19709 | 29 ft | 8 kts | 327° |
| 2026-04-21 22:21 | 32.73457 | -117.19806 | 30 ft | 19 kts | 291° |
| 2026-04-21 22:21 | 32.73498 | -117.19975 | 29 ft | 23 kts | 285° |
| 2026-04-21 22:21 | 32.73544 | -117.20164 | 29 ft | 25 kts | 286° |
| 2026-04-21 22:22 | 32.73589 | -117.20353 | 30 ft | 19 kts | 281° |
| 2026-04-21 22:22 | 32.73533 | -117.20480 | 26 ft | 18 kts | 231° |
| 2026-04-21 22:22 | 32.73438 | -117.20553 | 26 ft | 16 kts | 189° |
| 2026-04-21 22:22 | 32.73335 | -117.20554 | 28 ft | 13 kts | 175° |
| 2026-04-21 22:23 | 32.73278 | -117.20543 | 27 ft | 0 kts | 171° |
| 2026-04-21 22:23 | 32.73274 | -117.20542 | 27 ft | 3 kts | 171° |
| 2026-04-21 22:23 | 32.73253 | -117.20539 | 27 ft | 1 kts | 171° |
| 2026-04-21 22:23 | 32.73249 | -117.20538 | 27 ft | 0 kts | 171° |